createdAt,value
2019-05-12T00:00:50.025Z,100.0
2019-05-12T00:02:50.167Z,100.0
2019-05-12T00:04:50.444Z,100.0
2019-05-12T00:06:50.641Z,100.0
2019-05-12T00:08:50.676Z,100.0
2019-05-12T00:10:49.871Z,100.0
2019-05-12T00:12:50.195Z,99.6
2019-05-12T00:14:50.291Z,99.8
2019-05-12T00:16:50.625Z,99.8
2019-05-12T00:18:50.730Z,99.8
2019-05-12T00:20:49.869Z,98.7
2019-05-12T00:22:49.880Z,98.5
2019-05-12T00:24:49.889Z,98.7
2019-05-12T00:26:50.113Z,100.0
2019-05-12T00:28:50.201Z,99.3
2019-05-12T00:30:50.231Z,99.2
2019-05-12T00:32:50.328Z,99.4
2019-05-12T00:34:50.741Z,99.5
2019-05-12T00:36:50.070Z,98.7
2019-05-12T00:38:50.232Z,99.1
2019-05-12T00:40:50.244Z,99.5
2019-05-12T00:42:50.363Z,100.0
2019-05-12T00:44:50.558Z,98.7
2019-05-12T00:46:50.689Z,98.6
2019-05-12T00:48:49.795Z,98.7
2019-05-12T00:50:49.941Z,99.7
2019-05-12T00:52:50.025Z,98.0
2019-05-12T00:54:50.173Z,97.6
2019-05-12T00:56:50.442Z,98.1
2019-05-12T00:58:50.581Z,97.4
2019-05-12T01:00:50.661Z,95.9
2019-05-12T01:02:50.652Z,95.3
2019-05-12T01:04:50.213Z,94.6
2019-05-12T01:06:52.487Z,94.4
2019-05-12T01:08:50.581Z,93.5
2019-05-12T01:10:50.690Z,94.0
2019-05-12T01:12:50.708Z,93.6
2019-05-12T01:14:50.681Z,93.2
2019-05-12T01:16:49.921Z,93.0
2019-05-12T01:18:50.016Z,91.9
2019-05-12T01:20:50.030Z,91.6
2019-05-12T01:22:51.016Z,91.8
2019-05-12T01:24:50.102Z,91.8
2019-05-12T01:26:50.322Z,91.8
2019-05-12T01:28:50.497Z,92.0
2019-05-12T01:30:50.558Z,93.6
2019-05-12T01:32:50.639Z,92.2
2019-05-12T01:34:50.225Z,92.9
2019-05-12T01:36:50.416Z,93.2
2019-05-12T01:38:50.336Z,91.6
2019-05-12T01:40:50.449Z,91.1
2019-05-12T01:42:50.475Z,91.7
2019-05-12T01:44:50.556Z,91.4
2019-05-12T01:46:49.807Z,91.1
2019-05-12T01:48:49.874Z,90.0
2019-05-12T01:50:50.003Z,91.8
2019-05-12T01:52:50.067Z,90.8
2019-05-12T01:54:50.074Z,90.3
2019-05-12T01:56:50.229Z,89.9
2019-05-12T01:58:50.268Z,90.3
2019-05-12T02:00:50.382Z,91.6
2019-05-12T02:02:50.449Z,91.8
2019-05-12T02:04:49.894Z,90.7
2019-05-12T02:06:50.235Z,90.3
2019-05-12T02:08:50.534Z,89.9
2019-05-12T02:10:50.576Z,90.3
2019-05-12T02:12:50.595Z,90.2
2019-05-12T02:14:50.785Z,90.2
2019-05-12T02:16:50.046Z,89.8
2019-05-12T02:18:50.145Z,88.0
2019-05-12T02:20:50.219Z,88.5
2019-05-12T02:22:50.307Z,87.9
2019-05-12T02:24:50.332Z,87.6
2019-05-12T02:26:50.494Z,87.6
2019-05-12T02:28:50.494Z,88.3
2019-05-12T02:30:50.937Z,89.7
2019-05-12T02:33:00.136Z,88.4
2019-05-12T02:34:50.497Z,88.2
2019-05-12T02:36:50.729Z,89.5
2019-05-12T02:38:49.886Z,87.7
2019-05-12T02:40:49.937Z,88.2
2019-05-12T02:42:50.027Z,87.4
2019-05-12T02:44:50.068Z,87.8
2019-05-12T02:46:50.282Z,87.6
2019-05-12T02:48:50.381Z,88.7
2019-05-12T02:50:50.480Z,87.4
2019-05-12T02:52:50.528Z,86.8
2019-05-12T02:55:06.569Z,85.4
2019-05-12T02:56:50.715Z,86.1
2019-05-12T02:58:50.780Z,84.2
2019-05-12T03:00:49.900Z,84.2
2019-05-12T03:02:49.886Z,82.0
2019-05-12T03:04:50.318Z,85.0
2019-05-12T03:06:50.495Z,83.9
2019-05-12T03:08:50.528Z,81.7
2019-05-12T03:10:50.512Z,81.3
2019-05-12T03:12:50.653Z,82.8
2019-05-12T03:14:50.659Z,80.7
2019-05-12T03:16:53.770Z,84.0
2019-05-12T03:18:50.142Z,83.5
2019-05-12T03:20:50.196Z,82.3
2019-05-12T03:22:50.176Z,81.9
2019-05-12T03:25:29.655Z,82.3
2019-05-12T03:26:50.678Z,82.3
2019-05-12T03:28:50.678Z,81.2
2019-05-12T03:30:50.010Z,83.4
2019-05-12T03:32:50.143Z,81.1
2019-05-12T03:34:50.693Z,81.7
2019-05-12T03:37:00.004Z,80.8
2019-05-12T03:38:50.088Z,79.0
2019-05-12T03:40:50.171Z,77.4
2019-05-12T03:42:50.234Z,79.3
2019-05-12T03:44:50.341Z,78.0
2019-05-12T03:46:50.611Z,79.1
2019-05-12T03:48:50.695Z,78.3
2019-05-12T03:50:49.899Z,78.7
2019-05-12T03:52:50.091Z,81.2
2019-05-12T03:54:50.230Z,79.4
2019-05-12T03:56:50.624Z,81.9
2019-05-12T03:58:53.756Z,81.9
2019-05-12T04:00:50.172Z,81.5
2019-05-12T04:02:50.323Z,80.0
2019-05-12T04:04:50.706Z,79.2
2019-05-12T04:06:49.996Z,78.7
2019-05-12T04:08:50.308Z,79.6
2019-05-12T04:10:50.390Z,79.7
2019-05-12T04:12:50.440Z,80.3
2019-05-12T04:14:50.524Z,78.2
2019-05-12T04:16:50.663Z,78.2
2019-05-12T04:18:50.763Z,80.9
2019-05-12T04:20:49.934Z,80.8
2019-05-12T04:22:50.016Z,79.0
2019-05-12T04:24:50.124Z,80.8
2019-05-12T04:26:50.008Z,79.1
2019-05-12T04:28:50.080Z,77.8
2019-05-12T04:30:50.163Z,78.8
2019-05-12T04:32:50.212Z,80.2
2019-05-12T04:34:50.592Z,80.7
2019-05-12T04:36:50.787Z,79.5
2019-05-12T04:38:49.930Z,79.7
2019-05-12T04:40:49.976Z,79.3
2019-05-12T04:42:50.183Z,80.6
2019-05-12T04:44:50.296Z,80.0
2019-05-12T04:46:50.510Z,78.1
2019-05-12T04:48:50.608Z,78.5
2019-05-12T04:50:50.634Z,78.6
2019-05-12T04:52:50.740Z,79.8
2019-05-12T04:54:49.934Z,80.2
2019-05-12T04:56:50.461Z,81.6
2019-05-12T04:58:54.148Z,83.2
2019-05-12T05:00:50.636Z,85.3
2019-05-12T05:02:50.762Z,86.1
2019-05-12T05:04:50.192Z,86.1
2019-05-12T05:06:50.427Z,89.5
2019-05-12T05:08:50.499Z,90.2
2019-05-12T05:10:50.579Z,90.6
2019-05-12T05:12:50.663Z,90.5
2019-05-12T05:14:49.774Z,90.6
2019-05-12T05:16:50.076Z,90.3
2019-05-12T05:18:50.137Z,91.5
2019-05-12T05:20:50.283Z,89.9
2019-05-12T05:22:50.458Z,89.9
2019-05-12T05:24:50.565Z,90.6
2019-05-12T05:26:49.871Z,90.1
2019-05-12T05:28:50.073Z,88.9
2019-05-12T05:30:50.335Z,87.7
2019-05-12T05:32:50.527Z,87.4
2019-05-12T05:34:58.213Z,86.9
2019-05-12T05:37:01.859Z,87.6
2019-05-12T05:39:04.525Z,87.2
2019-05-12T05:40:50.134Z,88.1
2019-05-12T05:42:50.285Z,88.7
2019-05-12T05:44:50.378Z,87.5
2019-05-12T05:46:56.952Z,90.0
2019-05-12T05:48:50.091Z,87.0
2019-05-12T05:50:50.137Z,86.5
2019-05-12T05:52:50.206Z,87.0
2019-05-12T05:54:50.313Z,88.8
2019-05-12T05:57:06.505Z,86.7
2019-05-12T05:58:55.027Z,87.4
2019-05-12T06:01:08.569Z,87.5
2019-05-12T06:02:50.352Z,86.0
2019-05-12T06:04:56.753Z,86.8
2019-05-12T06:06:56.361Z,87.4
2019-05-12T06:08:50.365Z,88.5
2019-05-12T06:10:50.442Z,89.2
2019-05-12T06:12:51.337Z,90.6
2019-05-12T06:15:00.283Z,91.3
2019-05-12T06:16:50.292Z,91.9
2019-05-12T06:18:50.473Z,92.7
2019-05-12T06:20:50.509Z,93.6
2019-05-12T06:22:57.985Z,94.5
2019-05-12T06:24:59.283Z,94.7
2019-05-12T06:27:21.129Z,95.2
2019-05-12T06:28:50.045Z,96.8
2019-05-12T06:30:50.690Z,95.2
2019-05-12T06:32:54.938Z,95.3
2019-05-12T06:35:04.779Z,94.9
2019-05-12T06:36:50.505Z,95.3
2019-05-12T06:38:50.668Z,95.1
2019-05-12T06:40:50.748Z,96.7
2019-05-12T06:42:57.508Z,95.1
2019-05-12T06:44:58.574Z,95.5
2019-05-12T06:47:08.637Z,95.2
2019-05-12T06:48:50.429Z,95.2
2019-05-12T06:50:50.559Z,96.0
2019-05-12T06:52:50.503Z,96.5
2019-05-12T06:54:57.120Z,95.1
2019-05-12T06:57:26.076Z,95.2
2019-05-12T06:58:50.205Z,96.5
2019-05-12T07:00:50.468Z,95.1
2019-05-12T07:02:55.687Z,95.0
2019-05-12T07:04:59.907Z,94.7
2019-05-12T07:07:01.032Z,94.4
2019-05-12T07:09:24.638Z,93.7
2019-05-12T07:11:06.392Z,93.8
2019-05-12T07:13:06.395Z,93.7
2019-05-12T07:14:59.228Z,93.4
2019-05-12T07:17:06.617Z,92.8
2019-05-12T07:18:50.587Z,92.4
2019-05-12T07:20:50.760Z,92.4
2019-05-12T07:22:49.866Z,93.0
2019-05-12T07:24:55.033Z,91.3
2019-05-12T07:27:09.682Z,92.7
2019-05-12T07:28:50.463Z,91.0
2019-05-12T07:30:50.599Z,90.2
2019-05-12T07:33:04.561Z,90.5
2019-05-12T07:34:49.815Z,89.8
2019-05-12T07:36:50.293Z,89.9
2019-05-12T07:39:05.396Z,91.4
2019-05-12T07:40:50.711Z,88.6
2019-05-12T07:42:49.902Z,90.3
2019-05-12T07:44:50.073Z,87.7
2019-05-12T07:46:50.262Z,86.5
2019-05-12T07:48:51.413Z,85.7
2019-05-12T07:51:01.060Z,86.1
2019-05-12T07:52:50.203Z,85.9
2019-05-12T07:54:56.335Z,85.3
2019-05-12T07:56:50.491Z,84.1
2019-05-12T07:58:57.550Z,85.6
2019-05-12T08:01:08.262Z,83.8
2019-05-12T08:02:50.449Z,83.8
2019-05-12T08:04:49.928Z,82.8
2019-05-12T08:06:50.208Z,84.1
2019-05-12T08:08:59.398Z,82.8
2019-05-12T08:10:56.396Z,83.1
2019-05-12T08:13:01.078Z,82.5
2019-05-12T08:14:50.118Z,81.8
2019-05-12T08:16:50.219Z,81.9
2019-05-12T08:18:50.225Z,79.5
2019-05-12T08:20:50.310Z,78.8
2019-05-12T08:22:50.414Z,79.3
2019-05-12T08:24:50.476Z,79.3
2019-05-12T08:27:06.880Z,80.6
2019-05-12T08:28:50.686Z,79.1
2019-05-12T08:30:55.334Z,80.5
2019-05-12T08:33:10.408Z,77.4
2019-05-12T08:34:50.268Z,77.4
2019-05-12T08:36:58.535Z,77.9
2019-05-12T08:38:49.868Z,78.2
2019-05-12T08:40:54.756Z,75.6
2019-05-12T08:42:49.905Z,74.0
2019-05-12T08:44:49.946Z,73.0
2019-05-12T08:46:56.962Z,71.5
2019-05-12T08:49:05.587Z,70.8
2019-05-12T08:50:50.139Z,70.8
2019-05-12T08:52:50.190Z,68.5
2019-05-12T08:54:50.282Z,69.5
2019-05-12T08:57:03.990Z,68.7
2019-05-12T08:58:54.714Z,68.9
2019-05-12T09:00:51.034Z,68.7
2019-05-12T09:02:51.034Z,68.2
2019-05-12T09:04:56.060Z,69.5
2019-05-12T09:07:00.177Z,67.2
2019-05-12T09:08:50.177Z,65.4
2019-05-12T09:10:55.918Z,65.7
2019-05-12T09:12:50.016Z,67.9
2019-05-12T09:14:50.068Z,62.7
2019-05-12T09:17:07.629Z,65.6
2019-05-12T09:18:50.417Z,65.4
2019-05-12T09:20:56.169Z,66.4
2019-05-12T09:23:05.205Z,69.1
2019-05-12T09:24:50.448Z,65.2
2019-05-12T09:26:50.782Z,64.2
2019-05-12T09:28:50.908Z,65.0
2019-05-12T09:30:49.925Z,65.0
2019-05-12T09:32:56.364Z,64.5
2019-05-12T09:34:58.624Z,63.4
2019-05-12T09:37:03.969Z,63.6
2019-05-12T09:39:06.075Z,66.2
2019-05-12T09:41:05.671Z,64.0
2019-05-12T09:42:50.038Z,64.6
2019-05-12T09:44:50.224Z,65.4
2019-05-12T09:46:50.542Z,65.3
2019-05-12T09:48:55.460Z,62.7
2019-05-12T09:51:04.726Z,60.8
2019-05-12T09:53:11.219Z,60.1
2019-05-12T09:54:50.207Z,58.9
2019-05-12T09:57:00.143Z,60.1
2019-05-12T09:59:25.831Z,59.0
2019-05-12T10:00:50.712Z,60.2
2019-05-12T10:03:01.004Z,61.8
2019-05-12T10:05:03.985Z,59.1
2019-05-12T10:06:50.556Z,58.4
2019-05-12T10:08:50.774Z,58.7
2019-05-12T10:10:49.981Z,57.7
2019-05-12T10:12:51.096Z,58.5
2019-05-12T10:14:50.064Z,58.6
2019-05-12T10:16:50.357Z,58.5
2019-05-12T10:18:53.078Z,60.1
2019-05-12T10:20:50.244Z,60.4
2019-05-12T10:22:50.310Z,53
2019-05-12T10:24:59.083Z,53
2019-05-12T10:26:51.030Z,53.9
2019-05-12T10:29:19.769Z,55.9
2019-05-12T10:30:57.319Z,56.0
2019-05-12T10:32:50.483Z,54.8
2019-05-12T10:34:54.051Z,51.5
2019-05-12T10:36:50.230Z,52
2019-05-12T10:38:50.287Z,55.0
2019-05-12T10:40:50.365Z,51.8
2019-05-12T10:42:50.471Z,52.7
2019-05-12T10:44:57.014Z,52.2
2019-05-12T10:46:50.282Z,51
2019-05-12T10:48:50.303Z,51
2019-05-12T10:50:50.363Z,50
2019-05-12T10:52:50.329Z,50
2019-05-12T10:54:50.397Z,51
2019-05-12T10:56:50.544Z,51
2019-05-12T10:58:50.611Z,49
2019-05-12T11:00:50.723Z,50
2019-05-12T11:02:50.784Z,48
2019-05-12T11:04:50.276Z,49
2019-05-12T11:06:50.486Z,49
2019-05-12T11:08:54.269Z,48
2019-05-12T11:11:01.506Z,47
2019-05-12T11:12:50.405Z,47
2019-05-12T11:14:50.397Z,47
2019-05-12T11:16:50.634Z,46
2019-05-12T11:18:49.804Z,46
2019-05-12T11:20:49.809Z,47
2019-05-12T11:22:49.871Z,47
2019-05-12T11:24:56.170Z,47
2019-05-12T11:26:50.330Z,47
2019-05-12T11:28:50.434Z,47
2019-05-12T11:30:50.472Z,47
2019-05-12T11:32:50.776Z,47
2019-05-12T11:34:50.261Z,46
2019-05-12T11:36:50.391Z,47
2019-05-12T11:38:53.744Z,46
2019-05-12T11:40:49.875Z,46
2019-05-12T11:43:04.790Z,46
2019-05-12T11:44:49.837Z,46
2019-05-12T11:46:50.043Z,44
2019-05-12T11:48:50.920Z,45
2019-05-12T11:50:54.184Z,45
2019-05-12T11:52:52.637Z,45
2019-05-12T11:54:54.119Z,45
2019-05-12T11:56:50.964Z,45
2019-05-12T11:58:54.599Z,45
2019-05-12T12:00:50.575Z,45
2019-05-12T12:02:49.817Z,45
2019-05-12T12:04:50.316Z,45
2019-05-12T12:06:50.569Z,45
2019-05-12T12:08:50.638Z,45
2019-05-12T12:10:50.669Z,44
2019-05-12T12:12:50.662Z,44
2019-05-12T12:14:51.015Z,44
2019-05-12T12:16:54.727Z,44
2019-05-12T12:19:06.249Z,45
2019-05-12T12:21:08.097Z,45
2019-05-12T12:22:49.865Z,45
2019-05-12T12:24:49.908Z,44
2019-05-12T12:26:50.090Z,44
2019-05-12T12:28:50.070Z,44
2019-05-12T12:31:07.764Z,43
2019-05-12T12:33:00.710Z,43
2019-05-12T12:34:50.324Z,42
2019-05-12T12:36:50.514Z,43
2019-05-12T12:38:50.582Z,43
2019-05-12T12:40:50.814Z,42
2019-05-12T12:42:49.898Z,42
2019-05-12T12:45:00.723Z,41
2019-05-12T12:47:02.215Z,42
2019-05-12T12:48:49.935Z,42
2019-05-12T12:50:50.223Z,42
2019-05-12T12:52:50.172Z,42
2019-05-12T12:54:50.204Z,43
2019-05-12T12:56:50.439Z,41
2019-05-12T12:58:50.498Z,41
2019-05-12T13:00:57.462Z,42
2019-05-12T13:02:50.507Z,42
2019-05-12T13:04:50.930Z,42
2019-05-12T13:06:50.171Z,42
2019-05-12T13:08:50.327Z,42
2019-05-12T13:10:54.705Z,41
2019-05-12T13:13:04.641Z,42
2019-05-12T13:14:50.639Z,40
2019-05-12T13:16:56.542Z,41
2019-05-12T13:18:50.577Z,41
2019-05-12T13:20:50.556Z,41
2019-05-12T13:22:50.594Z,42
2019-05-12T13:24:50.684Z,40
2019-05-12T13:26:49.874Z,40
2019-05-12T13:28:55.541Z,40
2019-05-12T13:30:50.602Z,40
2019-05-12T13:32:50.587Z,40
2019-05-12T13:34:52.401Z,40
2019-05-12T13:36:50.550Z,40
2019-05-12T13:38:50.559Z,40
2019-05-12T13:40:50.562Z,40
2019-05-12T13:42:50.711Z,39
2019-05-12T13:44:50.680Z,38
2019-05-12T13:46:59.261Z,38
2019-05-12T13:49:00.189Z,38
2019-05-12T13:50:50.179Z,38
2019-05-12T13:52:50.183Z,38
2019-05-12T13:54:50.255Z,38
2019-05-12T13:56:50.465Z,38
2019-05-12T13:58:50.454Z,37
2019-05-12T14:01:21.128Z,37
2019-05-12T14:03:10.062Z,37
2019-05-12T14:04:49.849Z,37
2019-05-12T14:06:49.991Z,38
2019-05-12T14:08:49.994Z,38
2019-05-12T14:11:00.193Z,37
2019-05-12T14:12:50.210Z,37
2019-05-12T14:14:50.212Z,37
2019-05-12T14:16:59.806Z,37
2019-05-12T14:19:00.693Z,37
2019-05-12T14:21:00.729Z,38
2019-05-12T14:22:50.673Z,38
2019-05-12T14:24:50.703Z,37
2019-05-12T14:26:49.994Z,38
2019-05-12T14:28:50.154Z,37
2019-05-12T14:30:54.865Z,37
2019-05-12T14:32:59.576Z,37
2019-05-12T14:35:01.055Z,37
2019-05-12T14:36:50.173Z,38
2019-05-12T14:38:50.227Z,38
2019-05-12T14:40:50.255Z,38
2019-05-12T14:42:50.307Z,38
2019-05-12T14:44:50.329Z,38
2019-05-12T14:46:57.353Z,38
2019-05-12T14:48:51.047Z,37
2019-05-12T14:50:49.965Z,37
2019-05-12T14:53:00.000Z,37
2019-05-12T14:54:49.944Z,38
2019-05-12T14:56:58.191Z,37
2019-05-12T14:59:03.369Z,37
2019-05-12T15:00:58.496Z,37
2019-05-12T15:02:50.508Z,37
2019-05-12T15:04:49.847Z,37
2019-05-12T15:06:49.994Z,37
2019-05-12T15:08:50.040Z,38
2019-05-12T15:10:50.028Z,38
2019-05-12T15:12:50.096Z,38
2019-05-12T15:14:50.136Z,37
2019-05-12T15:16:50.325Z,37
2019-05-12T15:18:50.661Z,37
2019-05-12T15:20:54.781Z,37
2019-05-12T15:22:55.726Z,37
2019-05-12T15:25:01.054Z,38
2019-05-12T15:27:00.960Z,38
2019-05-12T15:28:50.090Z,38
2019-05-12T15:30:50.055Z,38
2019-05-12T15:32:50.387Z,38
2019-05-12T15:34:50.828Z,38
2019-05-12T15:37:00.496Z,38
2019-05-12T15:38:59.491Z,38
2019-05-12T15:40:50.607Z,37
2019-05-12T15:43:09.154Z,37
2019-05-12T15:44:50.059Z,38
2019-05-12T15:46:50.400Z,38
2019-05-12T15:48:50.615Z,38
2019-05-12T15:50:50.673Z,38
2019-05-12T15:52:49.841Z,38
2019-05-12T15:54:54.284Z,37
2019-05-12T15:56:50.458Z,38
2019-05-12T15:58:50.488Z,38
2019-05-12T16:00:50.546Z,38
2019-05-12T16:02:50.662Z,38
2019-05-12T16:04:50.006Z,38
2019-05-12T16:06:58.137Z,38
2019-05-12T16:08:50.115Z,38
2019-05-12T16:10:50.154Z,38
2019-05-12T16:12:50.214Z,37.2
2019-05-12T16:14:50.223Z,39.3
2019-05-12T16:16:50.342Z,36.1
2019-05-12T16:18:51.153Z,38
2019-05-12T16:20:50.166Z,38
2019-05-12T16:22:50.242Z,38
2019-05-12T16:24:53.108Z,39
2019-05-12T16:26:53.512Z,39
2019-05-12T16:29:07.578Z,38
2019-05-12T16:30:50.365Z,38
2019-05-12T16:32:50.432Z,38
2019-05-12T16:34:49.797Z,37
2019-05-12T16:36:55.133Z,37.4
2019-05-12T16:39:00.493Z,38.5
2019-05-12T16:40:50.507Z,37.8
2019-05-12T16:43:00.426Z,36.1
2019-05-12T16:44:50.392Z,38.3
2019-05-12T16:46:50.491Z,38.3
2019-05-12T16:48:57.421Z,39.2
2019-05-12T16:50:50.422Z,38.1
2019-05-12T16:52:50.570Z,40.6
2019-05-12T16:54:50.539Z,38.2
2019-05-12T16:56:50.751Z,40.4
2019-05-12T16:58:49.778Z,38.1
2019-05-12T17:00:53.863Z,40.3
2019-05-12T17:02:58.409Z,39.2
2019-05-12T17:04:49.802Z,41.2
2019-05-12T17:06:49.953Z,41.2
2019-05-12T17:08:49.944Z,37.7
2019-05-12T17:11:30.841Z,40.7
2019-05-12T17:12:49.946Z,39.3
2019-05-12T17:14:50.644Z,40.5
2019-05-12T17:16:50.707Z,42.2
2019-05-12T17:18:50.739Z,39.9
2019-05-12T17:20:51.525Z,39.5
2019-05-12T17:23:00.741Z,37.8
2019-05-12T17:24:49.800Z,40.7
2019-05-12T17:26:49.999Z,43.5
2019-05-12T17:28:50.012Z,41.9
2019-05-12T17:30:50.023Z,43.7
2019-05-12T17:33:05.658Z,41.0
2019-05-12T17:34:50.410Z,42.9
2019-05-12T17:37:00.837Z,40.1
2019-05-12T17:38:58.029Z,41.9
2019-05-12T17:41:01.070Z,39.8
2019-05-12T17:42:50.118Z,39.8
2019-05-12T17:44:50.160Z,39.3
2019-05-12T17:46:50.388Z,40.0
2019-05-12T17:48:50.420Z,41.0
2019-05-12T17:50:51.027Z,42.7
2019-05-12T17:53:00.833Z,41.3
2019-05-12T17:54:49.844Z,43.9
2019-05-12T17:56:50.122Z,41.1
2019-05-12T17:58:50.093Z,42.6
2019-05-12T18:00:52.401Z,42.1
2019-05-12T18:03:24.639Z,42.1
2019-05-12T18:04:50.489Z,42.0
2019-05-12T18:06:50.634Z,44.8
2019-05-12T18:08:50.694Z,44.4
2019-05-12T18:10:50.657Z,43.1
2019-05-12T18:12:52.946Z,43.1
2019-05-12T18:14:52.763Z,41.7
2019-05-12T18:17:09.119Z,44.2
2019-05-12T18:18:49.887Z,45.3
2019-05-12T18:20:49.974Z,44.2
2019-05-12T18:22:50.219Z,44.5
2019-05-12T18:24:51.346Z,45.9
2019-05-12T18:27:08.101Z,45.0
2019-05-12T18:28:49.907Z,45.3
2019-05-12T18:30:49.864Z,45.8
2019-05-12T18:33:09.785Z,44.8
2019-05-12T18:34:50.575Z,45.4
2019-05-12T18:37:00.476Z,46.0
2019-05-12T18:39:11.820Z,46.2
2019-05-12T18:40:50.764Z,46.8
2019-05-12T18:42:50.752Z,46.8
2019-05-12T18:44:49.866Z,47.6
2019-05-12T18:46:50.252Z,47.1
2019-05-12T18:49:16.150Z,46.7
2019-05-12T18:50:50.062Z,47.0
2019-05-12T18:52:50.119Z,46.7
2019-05-12T18:54:57.660Z,47.9
2019-05-12T18:57:07.688Z,47.2
2019-05-12T18:58:50.496Z,45.4
2019-05-12T19:00:50.413Z,45.4
2019-05-12T19:02:54.684Z,47.8
2019-05-12T19:04:50.185Z,48.1
2019-05-12T19:06:50.315Z,48.8
2019-05-12T19:08:50.356Z,48.2
2019-05-12T19:10:52.277Z,47.5
2019-05-12T19:13:07.011Z,47.5
2019-05-12T19:14:55.063Z,47.2
2019-05-12T19:16:50.231Z,47.0
2019-05-12T19:18:50.442Z,49.2
2019-05-12T19:20:50.479Z,49.7
2019-05-12T19:23:00.460Z,50.5
2019-05-12T19:25:00.385Z,50.0
2019-05-12T19:26:50.636Z,49.3
2019-05-12T19:28:58.422Z,48.0
2019-05-12T19:30:50.786Z,53.0
2019-05-12T19:33:05.153Z,51.7
2019-05-12T19:34:50.288Z,51.0
2019-05-12T19:36:50.594Z,53.2
2019-05-12T19:38:49.806Z,49.6
2019-05-12T19:41:01.301Z,48.5
2019-05-12T19:43:08.653Z,51.0
2019-05-12T19:44:50.474Z,51.0
2019-05-12T19:46:50.711Z,49.2
2019-05-12T19:48:50.713Z,51.2
2019-05-12T19:50:57.790Z,48.8
2019-05-12T19:52:49.862Z,51.3
2019-05-12T19:54:50.009Z,54.0
2019-05-12T19:56:50.295Z,53.4
2019-05-12T19:58:50.280Z,53.7
2019-05-12T20:00:50.298Z,53.6
2019-05-12T20:02:50.294Z,50.9
2019-05-12T20:04:57.094Z,50.5
2019-05-12T20:06:50.150Z,52.8
2019-05-12T20:09:13.764Z,52.9
2019-05-12T20:10:50.257Z,51.6
2019-05-12T20:12:57.473Z,51.1
2019-05-12T20:14:59.465Z,51.1
2019-05-12T20:16:50.551Z,51.7
2019-05-12T20:18:50.520Z,53.7
2019-05-12T20:20:50.473Z,52.8
2019-05-12T20:22:50.463Z,51.5
2019-05-12T20:24:50.569Z,53.4
2019-05-12T20:26:49.861Z,54.0
2019-05-12T20:28:55.777Z,54.3
2019-05-12T20:31:06.261Z,54.0
2019-05-12T20:32:49.970Z,54.7
2019-05-12T20:34:55.768Z,53.8
2019-05-12T20:36:49.979Z,55.4
2019-05-12T20:38:50.025Z,57.0
2019-05-12T20:40:50.105Z,54.3
2019-05-12T20:43:14.845Z,54.2
2019-05-12T20:45:05.453Z,54.2
2019-05-12T20:46:49.887Z,54.6
2019-05-12T20:48:49.998Z,54.7
2019-05-12T20:50:49.959Z,55.9
2019-05-12T20:52:59.435Z,55.8
2019-05-12T20:55:00.249Z,54.5
2019-05-12T20:57:08.409Z,54.5
2019-05-12T20:58:50.221Z,57.3
2019-05-12T21:00:50.636Z,56.5
2019-05-12T21:02:50.733Z,56.1
2019-05-12T21:05:14.977Z,58.7
2019-05-12T21:06:50.102Z,58.3
2019-05-12T21:08:57.058Z,58.3
2019-05-12T21:10:50.005Z,56.3
2019-05-12T21:12:50.576Z,58.2
2019-05-12T21:15:20.613Z,58.5
2019-05-12T21:16:50.631Z,57.3
2019-05-12T21:19:14.425Z,59.4
2019-05-12T21:20:55.375Z,57.8
2019-05-12T21:22:50.296Z,56.9
2019-05-12T21:24:50.320Z,58.1
2019-05-12T21:26:50.406Z,60.0
2019-05-12T21:28:50.346Z,59.0
2019-05-12T21:30:50.336Z,57.2
2019-05-12T21:33:01.814Z,59.5
2019-05-12T21:34:59.772Z,58.5
2019-05-12T21:36:49.952Z,59.4
2019-05-12T21:38:49.914Z,59.1
2019-05-12T21:40:49.960Z,57.9
2019-05-12T21:42:50.040Z,58.9
2019-05-12T21:44:50.043Z,59.4
2019-05-12T21:47:11.000Z,59.2
2019-05-12T21:48:49.797Z,58.9
2019-05-12T21:50:49.820Z,60.3
2019-05-12T21:53:00.336Z,59.0
2019-05-12T21:54:50.299Z,59.7
2019-05-12T21:56:50.408Z,60.7
2019-05-12T21:58:58.672Z,60.7
2019-05-12T22:01:07.992Z,58.2
2019-05-12T22:02:49.883Z,62.4
2019-05-12T22:04:50.380Z,59.3
2019-05-12T22:06:59.223Z,59.7
2019-05-12T22:09:03.116Z,60.2
2019-05-12T22:10:50.351Z,60.6
2019-05-12T22:12:50.393Z,59.8
2019-05-12T22:14:50.372Z,59.2
2019-05-12T22:16:50.622Z,62.1
2019-05-12T22:18:59.849Z,62.1
2019-05-12T22:21:07.352Z,61.3
2019-05-12T22:22:50.130Z,63.0
2019-05-12T22:24:50.134Z,63.5
2019-05-12T22:26:50.292Z,62.5
2019-05-12T22:28:54.009Z,62.0
2019-05-12T22:30:50.136Z,63.0
2019-05-12T22:32:50.163Z,62.0
2019-05-12T22:34:50.556Z,62.6
2019-05-12T22:36:59.604Z,62.8
2019-05-12T22:39:05.306Z,62.9
2019-05-12T22:41:00.051Z,64.0
2019-05-12T22:43:06.924Z,64.6
2019-05-12T22:45:06.122Z,64.6
2019-05-12T22:46:50.012Z,64.0
2019-05-12T22:48:50.004Z,64.7
2019-05-12T22:50:50.105Z,63.9
2019-05-12T22:52:50.128Z,64.2
2019-05-12T22:54:53.712Z,64.1
2019-05-12T22:56:57.254Z,64.1
2019-05-12T22:59:01.704Z,64.5
2019-05-12T23:01:05.477Z,64.3
2019-05-12T23:02:50.702Z,64.2
2019-05-12T23:04:50.208Z,64.3
2019-05-12T23:06:50.279Z,64.8
2019-05-12T23:08:50.308Z,65.1
2019-05-12T23:10:56.454Z,65.2
2019-05-12T23:13:05.318Z,65.0
2019-05-12T23:15:07.693Z,66.8
2019-05-12T23:16:50.530Z,66.5
2019-05-12T23:18:50.608Z,65.6
2019-05-12T23:20:50.586Z,67.3
2019-05-12T23:22:50.566Z,67.3
2019-05-12T23:24:50.598Z,67.2
2019-05-12T23:26:50.743Z,67.4
2019-05-12T23:28:50.810Z,67.7
2019-05-12T23:30:50.598Z,67.5
2019-05-12T23:32:53.486Z,66.4
2019-05-12T23:34:59.066Z,66.4
2019-05-12T23:37:00.385Z,69.0
2019-05-12T23:39:04.834Z,69.3
2019-05-12T23:40:50.383Z,67.3
2019-05-12T23:42:50.371Z,67.6
2019-05-12T23:44:50.419Z,67.4
2019-05-12T23:46:50.683Z,68.8
2019-05-12T23:48:49.803Z,69.2
2019-05-12T23:50:50.739Z,68.5
2019-05-12T23:52:49.834Z,68.8
2019-05-12T23:54:49.839Z,69.6
2019-05-12T23:56:50.191Z,69.7
2019-05-12T23:58:50.270Z,69.8
